Time;durP1;ratioP1;P1;durP2;ratioP2;P2;SDS_P1;SDS_P2;PMS_P1;PMS_P2;Temp;Humidity;BMP_temperature;BMP_pressure;BME280_temperature;BME280_humidity;BME280_pressure;Samples;Min_cycle;Max_cycle;Signal;HPM_P1;HPM_P2
2023/03/30 00:01:53;;;;;;;16.02;12.27;;;11.90;99.90;;;;;;5154297;27;20042;-71
2023/03/30 00:04:21;;;;;;;16.30;11.65;;;11.90;99.90;;;;;;5154389;27;20093;-70
2023/03/30 00:06:49;;;;;;;17.73;12.15;;;11.90;99.90;;;;;;5154309;27;20192;-70
2023/03/30 00:09:15;;;;;;;15.50;11.63;;;12.00;99.90;;;;;;5154386;27;20046;-70
2023/03/30 00:11:42;;;;;;;16.17;11.60;;;12.00;99.90;;;;;;5153900;27;20107;-70
2023/03/30 00:14:07;;;;;;;12.57;10.77;;;12.00;99.90;;;;;;5154681;27;20095;-70
2023/03/30 00:16:33;;;;;;;18.45;11.48;;;12.10;99.90;;;;;;5154202;27;20494;-71
2023/03/30 00:18:59;;;;;;;11.88;10.25;;;12.10;99.90;;;;;;5153688;27;20035;-70
2023/03/30 00:21:25;;;;;;;14.05;9.85;;;12.10;99.90;;;;;;5154339;27;20046;-71
2023/03/30 00:23:51;;;;;;;13.77;10.20;;;12.10;99.90;;;;;;5153713;27;20050;-71
2023/03/30 00:26:17;;;;;;;15.23;9.85;;;12.10;99.90;;;;;;5154449;27;20498;-70
2023/03/30 00:28:43;;;;;;;15.20;9.80;;;12.10;99.90;;;;;;5154402;27;20046;-71
2023/03/30 00:31:10;;;;;;;15.10;9.57;;;12.20;99.90;;;;;;5153885;27;20054;-70
2023/03/30 00:33:36;;;;;;;14.25;10.55;;;12.20;99.90;;;;;;5154413;27;20386;-70
2023/03/30 00:36:01;;;;;;;13.52;8.75;;;12.20;99.90;;;;;;5153988;27;20039;-71
2023/03/30 00:38:28;;;;;;;13.30;9.93;;;12.20;99.90;;;;;;5135411;27;20030;-71
2023/03/30 00:40:57;;;;;;;15.32;10.13;;;12.20;99.90;;;;;;5154195;27;20439;-71
2023/03/30 00:43:24;;;;;;;14.43;9.70;;;12.20;99.90;;;;;;5153884;27;20038;-71
2023/03/30 00:45:50;;;;;;;15.68;9.82;;;12.20;99.90;;;;;;5154363;27;20054;-70
2023/03/30 00:48:28;;;;;;;14.40;9.48;;;12.20;99.90;;;;;;5153956;27;20066;-71
2023/03/30 00:51:10;;;;;;;11.35;8.35;;;12.30;99.90;;;;;;5153986;27;20043;-72
2023/03/30 00:53:41;;;;;;;12.95;9.32;;;12.30;99.90;;;;;;5135423;27;20050;-70
2023/03/30 00:56:09;;;;;;;12.48;9.00;;;12.30;99.90;;;;;;5153690;27;20050;-71
2023/03/30 00:58:38;;;;;;;13.15;8.70;;;12.30;99.90;;;;;;5153692;27;20073;-71
2023/03/30 01:01:06;;;;;;;12.57;8.77;;;12.30;99.90;;;;;;5136025;27;20039;-71
2023/03/30 01:03:44;;;;;;;11.43;9.02;;;12.30;99.90;;;;;;5153304;27;20519;-70
2023/03/30 01:06:11;;;;;;;11.57;8.60;;;12.30;99.90;;;;;;5153428;27;20554;-71
2023/03/30 01:08:38;;;;;;;14.15;9.40;;;12.30;99.90;;;;;;5153776;27;20122;-70
2023/03/30 01:11:07;;;;;;;11.82;9.00;;;12.20;99.90;;;;;;5153646;27;20047;-71
2023/03/30 01:13:37;;;;;;;11.10;8.65;;;12.20;99.90;;;;;;5153704;27;20038;-70
2023/03/30 01:16:06;;;;;;;13.00;8.27;;;12.20;99.90;;;;;;5153598;27;20049;-70
2023/03/30 01:19:06;;;;;;;10.52;8.20;;;12.20;99.90;;;;;;5153556;27;20069;-70
2023/03/30 01:21:44;;;;;;;9.73;8.23;;;12.20;99.90;;;;;;5135098;27;20090;-71
2023/03/30 01:24:41;;;;;;;9.23;7.72;;;12.20;99.90;;;;;;5154223;27;20054;-70
2023/03/30 01:27:45;;;;;;;12.32;8.05;;;12.10;99.90;;;;;;5157328;27;20118;-70
2023/03/30 01:30:26;;;;;;;9.27;7.47;;;12.10;99.90;;;;;;5126674;27;20086;-71
2023/03/30 01:33:01;;;;;;;11.45;7.70;;;12.00;99.90;;;;;;5138648;27;20055;-70
2023/03/30 01:35:31;;;;;;;9.20;6.70;;;11.90;99.90;;;;;;5157072;27;20091;-71
2023/03/30 01:38:24;;;;;;;12.75;7.03;;;12.00;99.90;;;;;;5157392;27;20043;-71
2023/03/30 01:41:21;;;;;;;7.20;5.53;;;12.00;99.90;;;;;;5157570;27;20047;-70
2023/03/30 01:43:59;;;;;;;8.70;6.22;;;12.00;99.90;;;;;;5157065;27;20055;-71
2023/03/30 01:46:36;;;;;;;10.55;6.20;;;12.10;99.90;;;;;;5156955;27;20122;-70
2023/03/30 01:49:26;;;;;;;7.57;6.18;;;12.10;99.90;;;;;;5157024;27;20039;-71
2023/03/30 01:52:03;;;;;;;12.40;6.43;;;12.10;99.90;;;;;;5157045;27;20046;-71
2023/03/30 01:54:35;;;;;;;6.85;5.60;;;12.20;99.90;;;;;;5139069;27;20078;-71
2023/03/30 01:57:12;;;;;;;6.45;5.50;;;12.20;99.90;;;;;;5156904;27;20042;-72
2023/03/30 02:00:00;;;;;;;5.68;5.13;;;12.20;99.90;;;;;;5139267;27;20047;-71
2023/03/30 02:02:29;;;;;;;9.02;5.88;;;12.30;99.90;;;;;;5156977;27;20078;-73
2023/03/30 02:04:59;;;;;;;7.65;5.40;;;12.30;99.90;;;;;;5157011;27;20065;-71
2023/03/30 02:07:29;;;;;;;5.82;4.65;;;12.30;99.90;;;;;;5156491;27;20038;-71
2023/03/30 02:10:00;;;;;;;8.07;4.95;;;12.30;99.90;;;;;;5156532;27;20051;-71
2023/03/30 02:12:28;;;;;;;12.43;5.32;;;12.30;99.90;;;;;;5156895;27;20443;-71
2023/03/30 02:14:57;;;;;;;8.82;5.53;;;12.20;99.90;;;;;;5157043;27;20042;-72
2023/03/30 02:17:23;;;;;;;7.40;5.38;;;12.20;99.90;;;;;;5156297;27;20050;-72
2023/03/30 02:19:50;;;;;;;8.40;5.28;;;12.20;99.90;;;;;;5156295;27;20051;-71
2023/03/30 02:22:18;;;;;;;6.63;5.85;;;12.20;99.90;;;;;;5156596;27;20062;-71
2023/03/30 02:24:47;;;;;;;8.77;5.20;;;12.20;99.90;;;;;;5156566;27;20482;-71
2023/03/30 02:27:13;;;;;;;9.98;5.88;;;12.20;99.90;;;;;;5138241;27;20397;-71
2023/03/30 02:29:43;;;;;;;8.63;5.65;;;12.20;99.90;;;;;;5156245;27;20034;-71
2023/03/30 02:32:17;;;;;;;8.32;5.88;;;12.20;99.90;;;;;;5156718;27;20091;-71
2023/03/30 02:35:09;;;;;;;8.63;5.35;;;12.20;99.90;;;;;;5138079;27;20384;-72
2023/03/30 02:37:50;;;;;;;6.53;5.90;;;12.20;99.90;;;;;;5155728;27;20425;-71
2023/03/30 02:40:46;;;;;;;6.97;5.43;;;12.10;99.90;;;;;;5156034;27;20056;-72
2023/03/30 02:43:21;;;;;;;6.82;5.45;;;12.20;99.90;;;;;;5155952;27;20049;-72
2023/03/30 02:45:52;;;;;;;9.32;5.85;;;12.20;99.90;;;;;;5138009;27;20054;-71
2023/03/30 02:48:43;;;;;;;8.40;5.65;;;12.10;99.90;;;;;;5155728;27;20046;-71
2023/03/30 02:51:33;;;;;;;8.73;5.60;;;12.20;99.90;;;;;;5156052;27;20038;-71
2023/03/30 02:54:05;;;;;;;6.45;5.85;;;12.20;99.90;;;;;;5137709;27;20494;-71
2023/03/30 02:56:47;;;;;;;9.20;5.97;;;12.20;99.90;;;;;;5156089;27;20051;-71
2023/03/30 02:59:21;;;;;;;7.47;5.53;;;12.20;99.90;;;;;;5155483;27;20126;-72
2023/03/30 03:01:57;;;;;;;8.13;5.28;;;12.20;99.90;;;;;;5155564;27;20047;-71
2023/03/30 03:04:27;;;;;;;7.05;5.35;;;12.20;99.90;;;;;;5155788;27;20036;-71
2023/03/30 03:06:54;;;;;;;8.10;4.85;;;12.20;99.90;;;;;;5155388;27;20039;-72
2023/03/30 03:09:23;;;;;;;7.13;6.30;;;12.20;99.90;;;;;;5155248;27;20057;-71
2023/03/30 03:11:50;;;;;;;7.63;4.78;;;12.20;99.90;;;;;;5155553;27;20042;-71
2023/03/30 03:14:16;;;;;;;8.95;5.70;;;12.20;99.90;;;;;;5136667;27;20058;-72
2023/03/30 03:16:42;;;;;;;6.90;5.15;;;12.10;99.90;;;;;;5155201;27;20047;-71
2023/03/30 03:19:08;;;;;;;7.78;5.28;;;12.10;99.90;;;;;;5136634;27;20046;-71
2023/03/30 03:21:35;;;;;;;6.78;5.18;;;12.10;99.90;;;;;;5155163;27;20171;-71
2023/03/30 03:24:02;;;;;;;9.13;4.97;;;11.50;99.90;;;;;;5154949;27;20567;-72
2023/03/30 03:26:27;;;;;;;9.15;4.90;;;12.10;99.90;;;;;;5156287;27;20042;-72
2023/03/30 03:28:53;;;;;;;5.78;4.47;;;12.10;99.90;;;;;;5156436;27;20043;-72
2023/03/30 03:31:19;;;;;;;8.40;5.20;;;12.10;99.90;;;;;;5155596;27;20114;-71
2023/03/30 03:33:44;;;;;;;7.95;4.63;;;12.10;99.90;;;;;;5155431;27;20054;-72
2023/03/30 03:36:10;;;;;;;6.30;4.22;;;12.10;99.90;;;;;;5154821;27;20528;-72
2023/03/30 03:38:37;;;;;;;8.63;5.55;;;12.10;99.90;;;;;;5154820;27;20042;-71
2023/03/30 03:41:03;;;;;;;8.48;5.95;;;12.00;99.90;;;;;;5136722;27;20050;-72
2023/03/30 03:43:28;;;;;;;10.63;5.00;;;11.90;99.90;;;;;;5154692;27;20494;-71
2023/03/30 03:45:55;;;;;;;6.85;5.35;;;12.00;99.90;;;;;;5155089;27;20042;-71
2023/03/30 03:48:23;;;;;;;7.70;5.25;;;11.90;99.90;;;;;;5154754;27;20087;-72
2023/03/30 03:50:51;;;;;;;7.38;4.30;;;11.90;99.90;;;;;;5154577;27;20047;-71
2023/03/30 03:53:17;;;;;;;6.88;4.18;;;12.00;99.90;;;;;;5154905;27;20038;-71
2023/03/30 03:55:44;;;;;;;7.25;4.60;;;12.10;99.90;;;;;;5135998;27;20042;-72
2023/03/30 03:58:10;;;;;;;7.15;4.53;;;12.10;99.90;;;;;;5154465;27;20462;-71
2023/03/30 04:00:36;;;;;;;6.53;4.70;;;12.10;99.90;;;;;;5155104;27;20042;-71
2023/03/30 04:03:03;;;;;;;7.03;4.40;;;12.10;99.90;;;;;;5154486;27;20038;-71
2023/03/30 04:05:30;;;;;;;8.32;4.65;;;12.10;99.90;;;;;;5154073;27;20458;-72
2023/03/30 04:07:56;;;;;;;6.80;4.90;;;12.10;99.90;;;;;;5154378;27;20042;-71
2023/03/30 04:10:22;;;;;;;9.00;4.15;;;12.10;99.90;;;;;;5154386;27;20046;-71
2023/03/30 04:12:48;;;;;;;7.65;4.20;;;12.10;99.90;;;;;;5154339;27;20039;-71
2023/03/30 04:15:14;;;;;;;4.45;3.92;;;12.20;99.90;;;;;;5154404;27;20051;-72
2023/03/30 04:17:40;;;;;;;7.72;4.00;;;12.10;99.90;;;;;;5118713;27;20057;-71
2023/03/30 04:20:10;;;;;;;6.35;4.78;;;12.70;99.90;;;;;;5135905;27;20046;-71
2023/03/30 04:22:36;;;;;;;6.00;4.00;;;12.10;99.90;;;;;;5154280;27;20074;-72
2023/03/30 04:25:04;;;;;;;5.68;3.90;;;12.00;99.90;;;;;;5154120;27;20034;-71
2023/03/30 04:27:29;;;;;;;5.78;3.92;;;12.00;99.90;;;;;;5136104;27;20383;-72
2023/03/30 04:29:56;;;;;;;12.93;4.38;;;12.00;99.90;;;;;;5153943;27;20176;-72
2023/03/30 04:32:23;;;;;;;6.60;3.72;;;12.10;99.90;;;;;;5154439;27;20078;-72
2023/03/30 04:34:53;;;;;;;8.63;4.13;;;12.10;99.90;;;;;;5154370;27;20043;-72
2023/03/30 04:37:28;;;;;;;6.18;3.58;;;12.10;99.90;;;;;;5154397;27;20075;-72
2023/03/30 04:39:56;;;;;;;5.70;3.60;;;12.10;99.90;;;;;;5154397;27;20485;-72
2023/03/30 04:42:29;;;;;;;5.80;4.10;;;12.10;99.90;;;;;;5153796;27;20080;-71
2023/03/30 04:44:56;;;;;;;4.30;3.58;;;12.10;99.90;;;;;;5136006;27;20047;-72
2023/03/30 04:47:23;;;;;;;6.70;4.00;;;12.10;99.90;;;;;;5153462;27;20507;-72
2023/03/30 04:49:49;;;;;;;7.72;4.00;;;12.10;99.90;;;;;;5153704;27;20089;-72
2023/03/30 04:52:15;;;;;;;6.07;3.45;;;12.10;99.90;;;;;;5153726;27;20043;-72
2023/03/30 04:54:41;;;;;;;5.07;3.80;;;12.10;99.90;;;;;;5135464;27;20039;-72
2023/03/30 04:57:06;;;;;;;7.03;4.05;;;12.10;99.90;;;;;;5153618;27;20064;-72
2023/03/30 04:59:32;;;;;;;6.25;3.25;;;12.20;99.90;;;;;;5120180;27;20043;-72
2023/03/30 05:01:58;;;;;;;6.18;3.58;;;12.20;99.90;;;;;;5157643;27;20038;-72
2023/03/30 05:04:23;;;;;;;6.05;3.90;;;12.20;99.90;;;;;;5157686;27;20046;-72
2023/03/30 05:06:49;;;;;;;7.55;3.40;;;12.20;99.90;;;;;;5157620;27;20049;-72
2023/03/30 05:09:15;;;;;;;5.03;3.70;;;12.30;99.90;;;;;;5157802;27;20142;-72
2023/03/30 05:11:41;;;;;;;6.05;3.15;;;12.30;99.90;;;;;;5139153;27;20049;-72
2023/03/30 05:14:07;;;;;;;7.05;3.47;;;12.30;99.90;;;;;;5157346;27;20122;-72
2023/03/30 05:16:33;;;;;;;7.53;3.80;;;12.40;99.90;;;;;;5138728;27;20092;-72
2023/03/30 05:18:58;;;;;;;8.45;4.28;;;12.40;99.90;;;;;;5157221;27;20043;-72
2023/03/30 05:21:24;;;;;;;6.45;3.50;;;12.40;99.90;;;;;;5122202;27;20043;-72
2023/03/30 05:23:50;;;;;;;8.90;3.40;;;12.40;99.90;;;;;;5157389;27;20086;-72
2023/03/30 05:26:15;;;;;;;6.50;3.75;;;12.40;99.90;;;;;;5157122;27;20054;-72
2023/03/30 05:28:41;;;;;;;7.32;3.55;;;12.50;99.90;;;;;;5138802;27;20051;-72
2023/03/30 05:31:07;;;;;;;6.35;3.58;;;12.50;99.90;;;;;;5157654;27;20117;-72
2023/03/30 05:33:33;;;;;;;6.00;4.50;;;12.50;99.90;;;;;;5157353;27;20523;-72
2023/03/30 05:35:59;;;;;;;7.28;4.03;;;12.60;99.90;;;;;;5138381;27;20502;-72
2023/03/30 05:38:25;;;;;;;7.40;3.85;;;12.60;99.90;;;;;;5156779;27;20067;-72
2023/03/30 05:40:54;;;;;;;8.88;4.50;;;12.60;99.90;;;;;;5156702;27;20038;-72
2023/03/30 05:43:20;;;;;;;5.80;4.15;;;12.60;99.90;;;;;;5121260;27;20038;-71
2023/03/30 05:45:45;;;;;;;6.28;3.83;;;12.50;99.90;;;;;;5156953;27;20054;-72
2023/03/30 05:48:11;;;;;;;7.18;3.95;;;12.50;99.90;;;;;;5156562;27;20065;-71
2023/03/30 05:50:37;;;;;;;5.97;3.67;;;12.50;99.90;;;;;;5156989;27;20068;-71
2023/03/30 05:53:02;;;;;;;6.38;4.47;;;12.50;99.90;;;;;;5138526;27;20496;-72
2023/03/30 05:55:28;;;;;;;7.60;4.70;;;12.40;99.90;;;;;;5156521;27;20039;-72
2023/03/30 05:57:55;;;;;;;9.98;5.03;;;12.40;99.90;;;;;;5138347;27;20047;-72
2023/03/30 06:00:21;;;;;;;8.80;4.40;;;12.40;99.90;;;;;;5156668;27;20046;-72
2023/03/30 06:02:48;;;;;;;7.53;4.45;;;12.40;99.90;;;;;;5137959;27;20100;-71
2023/03/30 06:05:14;;;;;;;8.77;4.57;;;12.30;99.90;;;;;;5138264;27;20088;-71
2023/03/30 06:07:39;;;;;;;5.70;4.45;;;12.40;99.90;;;;;;5104335;27;20046;-71
2023/03/30 06:10:06;;;;;;;8.25;4.70;;;12.30;99.90;;;;;;5156169;27;20413;-71
2023/03/30 06:12:32;;;;;;;5.93;4.38;;;12.30;99.90;;;;;;5156330;27;20039;-71
2023/03/30 06:15:01;;;;;;;8.60;3.97;;;12.30;99.90;;;;;;5137719;27;20149;-71
2023/03/30 06:17:28;;;;;;;7.20;3.75;;;12.30;99.90;;;;;;5137933;27;20481;-73
2023/03/30 06:19:54;;;;;;;7.38;3.65;;;12.30;99.90;;;;;;5138073;27;20111;-71
2023/03/30 06:22:20;;;;;;;5.63;3.65;;;12.30;99.90;;;;;;5137964;27;20464;-71
2023/03/30 06:24:46;;;;;;;6.90;3.97;;;12.40;99.90;;;;;;5155982;27;20057;-71
2023/03/30 06:27:12;;;;;;;8.80;4.05;;;12.40;99.90;;;;;;5155921;27;20046;-73
2023/03/30 06:29:37;;;;;;;6.57;4.28;;;12.40;99.90;;;;;;5137640;27;20114;-74
2023/03/30 06:32:03;;;;;;;6.05;3.60;;;12.40;99.90;;;;;;5137445;27;20046;-74
2023/03/30 06:34:29;;;;;;;7.57;4.22;;;12.40;99.90;;;;;;5155906;27;20046;-72
2023/03/30 06:36:56;;;;;;;6.10;4.63;;;12.50;99.90;;;;;;5155814;27;20088;-71
2023/03/30 06:39:21;;;;;;;7.65;4.72;;;12.60;99.90;;;;;;5102991;27;20065;-71
2023/03/30 06:41:47;;;;;;;6.88;3.83;;;12.60;99.90;;;;;;5155782;27;20043;-70
2023/03/30 06:44:16;;;;;;;7.78;4.40;;;12.80;99.90;;;;;;5156185;27;20038;-70
2023/03/30 06:46:42;;;;;;;5.57;3.80;;;12.80;99.90;;;;;;5155691;27;20049;-71
2023/03/30 06:49:11;;;;;;;7.43;4.35;;;12.90;99.90;;;;;;5155582;27;20039;-71
2023/03/30 06:51:37;;;;;;;8.50;4.75;;;13.10;99.90;;;;;;5155750;27;20047;-71
2023/03/30 06:54:03;;;;;;;6.10;4.07;;;13.30;99.90;;;;;;5137243;27;20051;-71
2023/03/30 06:56:29;;;;;;;6.47;3.45;;;13.40;99.90;;;;;;5155908;27;20077;-71
2023/03/30 06:58:56;;;;;;;8.00;4.43;;;13.60;99.90;;;;;;5155289;27;20070;-71
2023/03/30 07:01:22;;;;;;;5.63;3.28;;;13.70;99.90;;;;;;5137243;27;20058;-71
2023/03/30 07:03:50;;;;;;;6.57;3.65;;;13.60;99.90;;;;;;5137162;27;20062;-71
2023/03/30 07:06:16;;;;;;;8.50;5.00;;;13.60;99.90;;;;;;5155249;27;20054;-71
2023/03/30 07:08:42;;;;;;;7.40;3.80;;;13.60;99.90;;;;;;5155312;27;20043;-71
2023/03/30 07:11:08;;;;;;;6.07;3.17;;;13.60;99.90;;;;;;5155276;27;20046;-71
2023/03/30 07:13:33;;;;;;;13.07;4.63;;;13.80;99.90;;;;;;5137148;27;20054;-71
2023/03/30 07:15:59;;;;;;;11.15;3.20;;;13.90;99.90;;;;;;5155687;27;20038;-71
2023/03/30 07:18:26;;;;;;;9.57;4.78;;;13.90;99.90;;;;;;5155096;27;20125;-71
2023/03/30 07:20:52;;;;;;;6.72;3.08;;;13.80;99.90;;;;;;5155060;27;20065;-71
2023/03/30 07:23:17;;;;;;;6.80;3.25;;;13.60;99.90;;;;;;5154885;27;20054;-71
2023/03/30 07:25:45;;;;;;;12.18;3.90;;;13.50;99.90;;;;;;5154942;27;20049;-71
2023/03/30 07:28:10;;;;;;;9.68;3.85;;;13.50;99.90;;;;;;5155019;27;20074;-72
2023/03/30 07:30:37;;;;;;;5.72;2.95;;;13.40;99.90;;;;;;5155202;27;20362;-71
2023/03/30 07:33:03;;;;;;;3.58;3.20;;;13.20;99.90;;;;;;5154789;27;20054;-71
2023/03/30 07:35:29;;;;;;;8.60;3.33;;;13.20;99.90;;;;;;5154503;27;20043;-71
2023/03/30 07:37:55;;;;;;;6.68;3.38;;;13.10;99.90;;;;;;5154786;27;20039;-72
2023/03/30 07:40:20;;;;;;;6.85;3.40;;;13.00;99.90;;;;;;5154843;27;20144;-71
2023/03/30 07:42:47;;;;;;;9.95;4.22;;;12.90;99.90;;;;;;5154833;27;20443;-71
2023/03/30 07:45:13;;;;;;;8.55;4.20;;;12.90;99.90;;;;;;5154932;27;20038;-71
2023/03/30 07:47:39;;;;;;;9.20;3.72;;;12.80;99.90;;;;;;5155031;27;20045;-71
2023/03/30 07:50:06;;;;;;;8.15;3.42;;;12.80;99.90;;;;;;5136109;27;20077;-71
2023/03/30 07:52:32;;;;;;;9.18;3.03;;;12.80;99.90;;;;;;5135863;27;20055;-71
2023/03/30 07:54:58;;;;;;;8.15;3.25;;;12.80;99.90;;;;;;5154429;27;20501;-71
2023/03/30 07:57:23;;;;;;;6.03;4.88;;;12.80;99.90;;;;;;5154147;27;20039;-71
2023/03/30 07:59:49;;;;;;;7.90;3.92;;;12.80;99.90;;;;;;5154075;27;20071;-70
2023/03/30 08:02:16;;;;;;;10.63;3.97;;;12.80;99.90;;;;;;5135879;27;20043;-71
2023/03/30 08:04:43;;;;;;;12.18;4.00;;;12.70;99.90;;;;;;5154188;27;20135;-71
2023/03/30 08:07:09;;;;;;;9.93;4.90;;;12.70;99.90;;;;;;5154703;27;20046;-72
2023/03/30 08:09:35;;;;;;;6.40;4.90;;;12.70;99.90;;;;;;5154318;27;20068;-70
2023/03/30 08:12:01;;;;;;;10.90;4.03;;;12.60;99.90;;;;;;5135781;27;20051;-70
2023/03/30 08:14:27;;;;;;;10.85;5.32;;;12.60;99.90;;;;;;5154509;27;20047;-71
2023/03/30 08:16:54;;;;;;;7.05;3.92;;;12.60;99.90;;;;;;5153673;27;20043;-71
2023/03/30 08:19:22;;;;;;;9.60;4.60;;;12.60;99.90;;;;;;5154019;27;20076;-71
2023/03/30 08:21:48;;;;;;;11.52;4.07;;;12.50;99.90;;;;;;5153951;27;20051;-71
2023/03/30 08:24:13;;;;;;;9.38;4.38;;;12.40;99.90;;;;;;5154681;27;20054;-72
2023/03/30 08:26:39;;;;;;;17.08;5.28;;;12.30;99.90;;;;;;5136460;27;20352;-72
2023/03/30 08:29:05;;;;;;;10.10;4.80;;;12.30;99.90;;;;;;5135261;27;20054;-72
2023/03/30 08:31:31;;;;;;;10.75;4.22;;;12.20;99.90;;;;;;5153884;27;20126;-71
2023/03/30 08:33:58;;;;;;;8.98;4.65;;;12.20;99.90;;;;;;5154349;27;20074;-71
2023/03/30 08:36:24;;;;;;;20.65;4.90;;;12.10;99.90;;;;;;5139897;27;20077;-72
2023/03/30 08:38:50;;;;;;;18.70;4.97;;;12.10;99.90;;;;;;5158207;27;20118;-71
2023/03/30 08:41:22;;;;;;;12.32;4.88;;;12.10;99.90;;;;;;5158511;27;20047;-71
2023/03/30 08:43:52;;;;;;;15.48;4.88;;;12.10;99.90;;;;;;5140197;27;20058;-71
2023/03/30 08:46:19;;;;;;;14.75;5.28;;;12.10;99.90;;;;;;5139833;27;20047;-71
2023/03/30 08:48:47;;;;;;;12.30;5.47;;;12.10;99.90;;;;;;5140048;27;20058;-71
2023/03/30 08:51:16;;;;;;;13.55;5.35;;;12.10;99.90;;;;;;5139614;27;20531;-72
2023/03/30 08:53:42;;;;;;;12.00;4.75;;;12.10;99.90;;;;;;5158045;27;20047;-72
2023/03/30 08:56:09;;;;;;;16.42;5.22;;;12.10;99.90;;;;;;5157857;27;20478;-72
2023/03/30 08:58:51;;;;;;;13.82;5.07;;;12.20;99.90;;;;;;5158296;27;20058;-73
2023/03/30 09:01:45;;;;;;;16.85;6.45;;;11.60;99.90;;;;;;5157888;27;20492;-72
2023/03/30 09:04:17;;;;;;;13.98;5.72;;;12.30;99.90;;;;;;5157329;27;20054;-71
2023/03/30 09:06:46;;;;;;;12.63;4.38;;;12.70;99.90;;;;;;5157772;27;20038;-72
2023/03/30 09:09:16;;;;;;;13.07;5.18;;;13.00;99.90;;;;;;5157296;27;20500;-72
2023/03/30 09:11:42;;;;;;;15.32;5.18;;;13.10;99.90;;;;;;5158395;27;20130;-72
2023/03/30 09:14:15;;;;;;;17.23;5.72;;;13.10;99.90;;;;;;5157980;27;20078;-72
2023/03/30 09:16:51;;;;;;;15.50;4.68;;;13.20;99.90;;;;;;5158040;27;20051;-72
2023/03/30 09:19:35;;;;;;;9.88;4.50;;;13.60;99.90;;;;;;5157446;27;20159;-73
2023/03/30 09:22:02;;;;;;;;;;;14.00;99.90;;;;;;5157718;27;20103;-72
2023/03/30 09:24:29;;;;;;;16.38;5.00;;;13.90;99.90;;;;;;5157269;27;19932;-72
2023/03/30 09:27:24;;;;;;;17.65;5.47;;;13.90;99.90;;;;;;5157321;27;20046;-73
2023/03/30 09:29:54;;;;;;;11.88;4.50;;;13.70;99.90;;;;;;5157201;27;20050;-72
2023/03/30 09:32:45;;;;;;;12.25;4.15;;;13.70;99.90;;;;;;5157185;27;20039;-71
2023/03/30 09:35:17;;;;;;;16.10;4.82;;;13.90;99.90;;;;;;5157358;27;20043;-71
2023/03/30 09:37:43;;;;;;;11.67;4.40;;;14.20;99.90;;;;;;5157173;27;20034;-72
2023/03/30 09:40:27;;;;;;;9.10;3.38;;;14.50;99.90;;;;;;5157030;27;20321;-70
2023/03/30 09:43:09;;;;;;;8.50;4.30;;;15.10;99.90;;;;;;5157032;27;20046;-72
2023/03/30 09:45:35;;;;;;;10.15;3.78;;;14.90;99.90;;;;;;5156793;27;20046;-72
2023/03/30 09:48:07;;;;;;;15.20;3.80;;;14.60;99.90;;;;;;5156820;27;20043;-71
2023/03/30 09:50:41;;;;;;;15.38;5.13;;;14.50;99.90;;;;;;5157436;27;20047;-71
2023/03/30 09:53:21;;;;;;;11.80;3.50;;;14.60;99.90;;;;;;5156775;27;20122;-71
2023/03/30 09:56:11;;;;;;;12.88;3.95;;;14.40;99.90;;;;;;5157155;27;20102;-70
2023/03/30 09:58:37;;;;;;;6.90;3.00;;;14.50;99.90;;;;;;5156878;27;20434;-72
2023/03/30 10:01:11;;;;;;;18.52;4.63;;;14.40;99.90;;;;;;5157123;27;20046;-71
2023/03/30 10:03:38;;;;;;;10.43;3.90;;;14.20;99.90;;;;;;5157088;27;20494;-72
2023/03/30 10:06:14;;;;;;;6.68;3.78;;;14.10;99.90;;;;;;5156516;27;20051;-71
2023/03/30 10:08:54;;;;;;;9.50;3.65;;;14.00;99.90;;;;;;5138521;27;20081;-71
2023/03/30 10:11:43;;;;;;;16.73;4.78;;;13.70;99.90;;;;;;5156470;27;20053;-71
2023/03/30 10:14:33;;;;;;;11.18;4.05;;;13.60;99.90;;;;;;5156402;27;20081;-72
2023/03/30 10:17:00;;;;;;;11.05;3.95;;;13.50;99.90;;;;;;5156449;27;20082;-71
2023/03/30 10:19:26;;;;;;;9.75;4.07;;;13.60;99.90;;;;;;5156188;27;20051;-70
2023/03/30 10:21:54;;;;;;;11.68;3.40;;;13.60;99.90;;;;;;5156589;27;20049;-72
2023/03/30 10:24:23;;;;;;;11.60;2.92;;;13.70;99.90;;;;;;5156385;27;20143;-70
2023/03/30 10:27:11;;;;;;;11.93;3.30;;;13.60;99.90;;;;;;5156745;27;20051;-71
2023/03/30 10:29:37;;;;;;;11.70;3.75;;;13.10;99.90;;;;;;5155826;27;20058;-72
2023/03/30 10:32:28;;;;;;;9.73;4.43;;;13.70;99.90;;;;;;5156492;27;20448;-71
2023/03/30 10:34:56;;;;;;;9.88;3.75;;;13.60;99.90;;;;;;5156016;27;20043;-71
2023/03/30 10:37:31;;;;;;;9.13;3.28;;;13.50;99.90;;;;;;5155807;27;20039;-72
2023/03/30 10:39:58;;;;;;;11.23;3.47;;;13.50;99.90;;;;;;5156598;27;20348;-70
2023/03/30 10:42:27;;;;;;;13.43;3.72;;;13.60;99.90;;;;;;5156404;27;20104;-73
2023/03/30 10:44:55;;;;;;;10.77;3.95;;;13.60;99.90;;;;;;5155792;27;20078;-70
2023/03/30 10:47:38;;;;;;;12.30;3.45;;;13.50;99.90;;;;;;5155630;27;20046;-71
2023/03/30 10:50:22;;;;;;;13.98;3.15;;;13.50;99.90;;;;;;5156171;27;20061;-73
2023/03/30 10:53:05;;;;;;;9.95;4.22;;;13.50;99.90;;;;;;5155554;27;20486;-69
2023/03/30 10:56:02;;;;;;;7.40;3.87;;;13.50;99.90;;;;;;5155728;27;20050;-71
2023/03/30 10:58:43;;;;;;;7.47;3.60;;;13.60;99.90;;;;;;5154769;27;20039;-70
2023/03/30 11:01:42;;;;;;;10.35;3.30;;;13.60;99.90;;;;;;5155713;27;20091;-69
2023/03/30 11:04:20;;;;;;;9.63;3.78;;;13.60;99.90;;;;;;5155578;27;20050;-69
2023/03/30 11:06:48;;;;;;;14.23;3.95;;;13.70;99.90;;;;;;5155230;27;20057;-70
2023/03/30 11:09:19;;;;;;;9.52;4.55;;;13.70;99.90;;;;;;5155597;27;20042;-72
2023/03/30 11:11:55;;;;;;;10.68;3.90;;;13.60;99.90;;;;;;5155176;27;20103;-70
2023/03/30 11:14:26;;;;;;;9.80;4.40;;;13.60;99.90;;;;;;5136577;27;20099;-70
2023/03/30 11:17:00;;;;;;;10.82;4.40;;;13.70;99.90;;;;;;5155044;27;20050;-69
2023/03/30 11:19:30;;;;;;;15.40;3.45;;;13.80;99.90;;;;;;5155455;27;20042;-69
2023/03/30 11:22:15;;;;;;;13.95;4.70;;;13.90;99.90;;;;;;5154616;27;20130;-72
2023/03/30 11:24:42;;;;;;;13.50;3.15;;;13.90;99.90;;;;;;5155293;27;20051;-70
2023/03/30 11:27:24;;;;;;;10.20;3.80;;;13.90;99.90;;;;;;5136830;27;20062;-72
2023/03/30 11:30:01;;;;;;;15.35;4.03;;;13.90;99.90;;;;;;5154912;27;20110;-71
2023/03/30 11:32:39;;;;;;;11.98;4.60;;;13.80;99.90;;;;;;5155273;27;20118;-70
2023/03/30 11:35:26;;;;;;;23.38;6.18;;;14.00;99.90;;;;;;5136127;27;20046;-71
2023/03/30 11:38:27;;;;;;;14.65;5.07;;;14.20;99.90;;;;;;5154441;27;20459;-70
2023/03/30 11:40:59;;;;;;;13.73;4.50;;;14.50;99.90;;;;;;5122362;27;20055;-71
2023/03/30 11:43:28;;;;;;;13.38;4.63;;;14.70;99.90;;;;;;5135992;27;20043;-71
2023/03/30 11:46:26;;;;;;;15.48;4.10;;;14.80;99.90;;;;;;5135885;27;20479;-70
2023/03/30 11:49:19;;;;;;;14.80;4.60;;;15.00;99.90;;;;;;5136210;27;20046;-70
2023/03/30 11:52:25;;;;;;;10.25;4.28;;;15.00;99.90;;;;;;5136058;27;20050;-70
2023/03/30 11:55:39;;;;;;;11.48;4.28;;;15.00;99.90;;;;;;5134765;27;20065;-69
2023/03/30 11:58:47;;;;;;;11.38;4.70;;;15.00;99.90;;;;;;5107711;27;20090;-69
2023/03/30 12:01:27;;;;;;;11.55;4.10;;;15.00;99.90;;;;;;5073738;27;20055;-69
2023/03/30 12:04:05;;;;;;;12.40;3.65;;;15.00;99.90;;;;;;5154222;27;20053;-69
2023/03/30 12:06:59;;;;;;;12.68;3.85;;;14.90;99.90;;;;;;5136045;27;20448;-69
2023/03/30 12:09:24;;;;;;;;;;;15.00;99.90;;;;;;5109948;27;20069;-71
2023/03/30 12:12:05;;;;;;;11.05;4.20;;;15.00;99.90;;;;;;5153640;27;19919;-70
2023/03/30 12:14:50;;;;;;;11.07;4.03;;;15.10;99.90;;;;;;5154127;27;20043;-70
2023/03/30 12:17:32;;;;;;;11.85;4.22;;;15.30;99.90;;;;;;5153689;27;20162;-70
2023/03/30 12:20:08;;;;;;;16.48;4.10;;;15.30;99.90;;;;;;5154261;27;20058;-69
2023/03/30 12:22:51;;;;;;;10.32;3.92;;;15.60;99.90;;;;;;5153747;27;20062;-70
2023/03/30 12:25:29;;;;;;;9.70;3.90;;;15.60;99.90;;;;;;5153877;27;20050;-69
2023/03/30 12:27:57;;;;;;;7.30;3.35;;;15.80;99.90;;;;;;5154618;27;20099;-71
2023/03/30 12:30:40;;;;;;;16.00;4.75;;;15.70;99.90;;;;;;5135812;27;20089;-70
2023/03/30 12:33:24;;;;;;;13.63;3.83;;;15.80;99.90;;;;;;5153869;27;20122;-70
2023/03/30 12:35:52;;;;;;;9.68;3.25;;;15.70;99.90;;;;;;5153780;27;20039;-70
2023/03/30 12:38:25;;;;;;;13.77;5.50;;;15.70;99.90;;;;;;5153650;27;20472;-70
2023/03/30 12:41:15;;;;;;;9.18;3.63;;;15.80;99.90;;;;;;5135371;27;20047;-70
2023/03/30 12:44:08;;;;;;;14.18;3.97;;;15.80;99.90;;;;;;5154134;27;20042;-70
2023/03/30 12:47:02;;;;;;;16.50;4.63;;;15.90;99.90;;;;;;5153869;27;20488;-69
2023/03/30 12:49:54;;;;;;;12.07;4.05;;;16.00;99.90;;;;;;5154081;27;20053;-69
2023/03/30 12:52:49;;;;;;;9.10;3.42;;;15.90;99.90;;;;;;5153062;27;20055;-70
2023/03/30 12:55:41;;;;;;;11.38;5.05;;;15.80;99.90;;;;;;5132782;27;20531;-70
2023/03/30 12:58:25;;;;;;;11.93;4.35;;;15.70;99.90;;;;;;5127840;27;20051;-70
2023/03/30 13:01:06;;;;;;;10.95;3.47;;;15.70;99.90;;;;;;5154141;27;20043;-70
2023/03/30 13:03:51;;;;;;;12.93;4.10;;;15.70;99.90;;;;;;5154075;27;20481;-70
2023/03/30 13:06:38;;;;;;;19.92;4.32;;;15.70;99.90;;;;;;5154194;27;20087;-69
2023/03/30 13:09:19;;;;;;;13.30;4.10;;;15.70;99.90;;;;;;5135342;27;20064;-70